Time;durP1;ratioP1;P1;durP2;ratioP2;P2;SDS_P1;SDS_P2;PMS_P1;PMS_P2;Temp;Humidity;BMP_temperature;BMP_pressure;BME280_temperature;BME280_humidity;BME280_pressure;Samples;Min_cycle;Max_cycle;Signal;HPM_P1;HPM_P2
2021/09/19 00:00:14;;;;;;;4.00;2.72;;;13.30;99.90;;;;;;5033702;28;20186;-70
2021/09/19 00:02:40;;;;;;;2.97;2.67;;;13.30;99.90;;;;;;5029552;28;20181;-65
2021/09/19 00:05:10;;;;;;;5.22;3.10;;;13.30;99.90;;;;;;5034234;28;20207;-67
2021/09/19 00:07:36;;;;;;;4.22;3.05;;;13.30;99.90;;;;;;5025765;28;20241;-70
2021/09/19 00:10:04;;;;;;;3.35;2.70;;;13.20;99.90;;;;;;5039717;28;20218;-66
2021/09/19 00:12:29;;;;;;;5.80;3.33;;;13.20;99.90;;;;;;5031152;28;20183;-68
2021/09/19 00:14:55;;;;;;;3.40;2.55;;;13.20;99.90;;;;;;5037087;28;20249;-67
2021/09/19 00:17:21;;;;;;;5.28;3.40;;;13.20;99.90;;;;;;5032327;28;20206;-67
2021/09/19 00:19:46;;;;;;;3.20;2.50;;;13.20;99.90;;;;;;5033822;28;20179;-69
2021/09/19 00:22:12;;;;;;;3.35;2.90;;;13.20;99.90;;;;;;5033649;28;20269;-66
2021/09/19 00:24:38;;;;;;;5.50;3.03;;;13.20;99.90;;;;;;5021843;28;21028;-67
2021/09/19 00:27:04;;;;;;;4.60;2.90;;;13.20;99.90;;;;;;5031743;28;20206;-67
2021/09/19 00:29:30;;;;;;;5.90;3.00;;;13.20;99.90;;;;;;5035162;28;20182;-68
2021/09/19 00:31:56;;;;;;;3.58;2.97;;;13.20;99.90;;;;;;5032460;28;20221;-69
2021/09/19 00:34:21;;;;;;;3.45;2.88;;;13.20;99.90;;;;;;5034554;28;21099;-68
2021/09/19 00:36:47;;;;;;;3.85;3.22;;;13.20;99.90;;;;;;5031275;28;20211;-70
2021/09/19 00:39:13;;;;;;;3.22;2.63;;;13.20;99.90;;;;;;5037827;28;20588;-66
2021/09/19 00:41:39;;;;;;;3.25;2.80;;;13.10;99.90;;;;;;5034162;28;20203;-65
2021/09/19 00:44:06;;;;;;;3.72;2.80;;;13.10;99.90;;;;;;5031418;28;20695;-69
2021/09/19 00:46:32;;;;;;;3.72;3.15;;;13.10;99.90;;;;;;5030798;28;20241;-68
2021/09/19 00:48:57;;;;;;;6.03;3.00;;;13.00;99.90;;;;;;5035258;28;20214;-67
2021/09/19 00:51:23;;;;;;;3.53;2.65;;;13.10;99.90;;;;;;5030418;28;20832;-68
2021/09/19 00:53:51;;;;;;;4.20;3.15;;;13.00;99.90;;;;;;5035028;28;20182;-68
2021/09/19 00:56:26;;;;;;;4.00;3.17;;;13.00;99.90;;;;;;5032341;28;20200;-67
2021/09/19 00:58:53;;;;;;;4.43;3.17;;;12.90;99.90;;;;;;5037202;28;20178;-67
2021/09/19 01:01:19;;;;;;;4.43;3.08;;;12.80;99.90;;;;;;5029826;28;20214;-70
2021/09/19 01:03:45;;;;;;;5.30;3.20;;;12.70;99.90;;;;;;5032214;28;20183;-69
2021/09/19 01:06:12;;;;;;;3.58;3.05;;;12.70;99.90;;;;;;5032577;28;20214;-68
2021/09/19 01:08:42;;;;;;;3.28;2.92;;;12.60;99.90;;;;;;5021037;28;20618;-69
2021/09/19 01:11:10;;;;;;;3.65;3.00;;;12.50;99.90;;;;;;5036802;28;20897;-68
2021/09/19 01:13:36;;;;;;;4.70;3.30;;;12.40;99.90;;;;;;5040966;28;20875;-68
2021/09/19 01:16:03;;;;;;;4.15;3.53;;;12.30;99.90;;;;;;5041035;28;20182;-65
2021/09/19 01:18:30;;;;;;;6.40;3.38;;;12.20;99.90;;;;;;5040084;28;20210;-67
2021/09/19 01:20:55;;;;;;;3.78;3.28;;;12.10;99.90;;;;;;5037640;28;20202;-69
2021/09/19 01:23:21;;;;;;;5.47;3.15;;;12.00;99.90;;;;;;5037256;28;20209;-64
2021/09/19 01:25:49;;;;;;;3.75;3.05;;;12.00;99.90;;;;;;5037330;28;20471;-66
2021/09/19 01:28:15;;;;;;;3.63;2.90;;;12.00;99.90;;;;;;5038885;28;20549;-66
2021/09/19 01:30:41;;;;;;;5.00;3.55;;;11.90;99.90;;;;;;5037937;28;20309;-65
2021/09/19 01:33:07;;;;;;;3.83;3.30;;;11.90;99.90;;;;;;5037612;28;20179;-68
2021/09/19 01:35:33;;;;;;;6.25;3.47;;;11.90;99.90;;;;;;5041224;28;20182;-67
2021/09/19 01:37:59;;;;;;;4.65;3.40;;;11.80;99.90;;;;;;5040705;28;20186;-66
2021/09/19 01:40:26;;;;;;;3.90;3.33;;;11.80;99.90;;;;;;5032907;28;20198;-69
2021/09/19 01:42:52;;;;;;;5.28;3.97;;;11.80;99.90;;;;;;5039766;28;20281;-68
2021/09/19 01:45:18;;;;;;;5.75;3.63;;;11.80;99.90;;;;;;5031969;28;20218;-66
2021/09/19 01:47:44;;;;;;;5.35;3.50;;;11.80;99.90;;;;;;5037661;28;20201;-69
2021/09/19 01:50:10;;;;;;;4.47;3.35;;;11.80;99.90;;;;;;5028583;28;20572;-68
2021/09/19 01:52:36;;;;;;;5.28;3.90;;;11.80;99.90;;;;;;5040123;28;20637;-67
2021/09/19 01:55:02;;;;;;;4.25;3.75;;;11.80;99.90;;;;;;5027473;28;20181;-67
2021/09/19 01:57:28;;;;;;;4.07;3.30;;;11.80;99.90;;;;;;5027434;28;20210;-66
2021/09/19 01:59:55;;;;;;;6.15;3.47;;;11.70;99.90;;;;;;5037458;28;20210;-66
2021/09/19 02:02:22;;;;;;;4.47;3.50;;;11.70;99.90;;;;;;5029896;28;20209;-68
2021/09/19 02:04:50;;;;;;;5.65;3.92;;;11.70;99.90;;;;;;5041475;28;20687;-67
2021/09/19 02:07:16;;;;;;;5.63;3.53;;;11.80;99.90;;;;;;5038619;28;20265;-67
2021/09/19 02:09:41;;;;;;;4.65;3.50;;;11.80;99.90;;;;;;5042525;28;20385;-66
2021/09/19 02:12:07;;;;;;;5.10;3.83;;;11.80;99.90;;;;;;5042892;28;20201;-68
2021/09/19 02:14:33;;;;;;;5.07;3.78;;;11.80;99.90;;;;;;5039992;28;20170;-66
2021/09/19 02:17:00;;;;;;;4.57;3.53;;;11.70;99.90;;;;;;5040695;28;20262;-67
2021/09/19 02:19:26;;;;;;;5.82;4.07;;;11.70;99.90;;;;;;5038997;28;20182;-69
2021/09/19 02:21:52;;;;;;;5.78;3.75;;;11.70;99.90;;;;;;5037444;28;20214;-70
2021/09/19 02:24:17;;;;;;;6.60;4.43;;;11.80;99.90;;;;;;5036110;28;20175;-68
2021/09/19 02:26:43;;;;;;;5.32;3.75;;;11.70;99.90;;;;;;5035436;28;21069;-69
2021/09/19 02:29:09;;;;;;;6.32;4.13;;;11.70;99.90;;;;;;5034889;28;20209;-69
2021/09/19 02:31:34;;;;;;;6.55;4.28;;;11.70;99.90;;;;;;5032219;28;20195;-64
2021/09/19 02:34:00;;;;;;;5.70;3.80;;;11.70;99.90;;;;;;5029725;28;20179;-68
2021/09/19 02:36:26;;;;;;;6.00;4.38;;;11.80;99.90;;;;;;5027233;28;20287;-70
2021/09/19 02:38:53;;;;;;;6.20;4.15;;;11.90;99.90;;;;;;5037185;28;20689;-65
2021/09/19 02:41:19;;;;;;;5.13;4.22;;;11.80;99.90;;;;;;5034130;28;20256;-67
2021/09/19 02:43:45;;;;;;;5.07;3.80;;;11.90;99.90;;;;;;5035791;28;20814;-69
2021/09/19 02:46:11;;;;;;;6.03;4.25;;;11.80;99.90;;;;;;5025246;28;20255;-68
2021/09/19 02:48:37;;;;;;;5.40;4.20;;;11.90;99.90;;;;;;5036089;28;20183;-67
2021/09/19 02:51:03;;;;;;;5.40;3.67;;;11.90;99.90;;;;;;5034816;28;20217;-66
2021/09/19 02:53:28;;;;;;;6.20;4.20;;;11.80;99.90;;;;;;5022917;28;20605;-65
2021/09/19 02:55:54;;;;;;;4.32;3.92;;;11.90;99.90;;;;;;5034002;28;20335;-67
2021/09/19 02:58:20;;;;;;;5.90;4.10;;;11.80;99.90;;;;;;5033780;28;20353;-68
2021/09/19 03:00:45;;;;;;;5.25;3.80;;;11.90;99.90;;;;;;5033162;28;21074;-66
2021/09/19 03:03:11;;;;;;;4.72;3.58;;;11.90;99.90;;;;;;5034443;28;20270;-68
2021/09/19 03:05:37;;;;;;;4.70;4.15;;;11.90;99.90;;;;;;5036656;28;20210;-67
2021/09/19 03:08:02;;;;;;;5.13;3.70;;;11.90;99.90;;;;;;5034447;28;20673;-66
2021/09/19 03:10:28;;;;;;;4.63;3.83;;;11.90;99.90;;;;;;5036403;28;20198;-69
2021/09/19 03:12:54;;;;;;;6.10;4.07;;;11.90;99.90;;;;;;5039545;28;20177;-67
2021/09/19 03:15:20;;;;;;;8.32;3.78;;;12.00;99.90;;;;;;5033909;28;20241;-67
2021/09/19 03:17:45;;;;;;;6.45;3.80;;;12.00;99.90;;;;;;5033279;28;20187;-69
2021/09/19 03:20:14;;;;;;;4.68;3.58;;;12.00;99.90;;;;;;5033323;28;21417;-66
2021/09/19 03:22:40;;;;;;;5.45;3.35;;;12.00;99.90;;;;;;5029235;28;20186;-66
2021/09/19 03:25:07;;;;;;;4.22;3.30;;;12.10;99.90;;;;;;5030117;28;20215;-68
2021/09/19 03:27:33;;;;;;;4.97;3.50;;;12.10;99.90;;;;;;5036171;28;20277;-67
2021/09/19 03:29:59;;;;;;;4.78;3.35;;;12.10;99.90;;;;;;5034851;28;20190;-67
2021/09/19 03:32:25;;;;;;;5.20;3.63;;;12.00;99.90;;;;;;5035378;28;20170;-67
2021/09/19 03:34:51;;;;;;;4.03;3.10;;;12.00;99.90;;;;;;5037601;28;20513;-70
2021/09/19 03:37:16;;;;;;;5.40;3.15;;;12.00;99.90;;;;;;5035059;28;20183;-68
2021/09/19 03:39:42;;;;;;;5.25;3.47;;;12.00;99.90;;;;;;5035191;28;20175;-69
2021/09/19 03:42:08;;;;;;;3.30;2.78;;;12.00;99.90;;;;;;5029715;28;20210;-69
2021/09/19 03:44:34;;;;;;;4.38;3.30;;;12.00;99.90;;;;;;5039086;28;20194;-68
2021/09/19 03:46:59;;;;;;;3.30;2.88;;;12.00;99.90;;;;;;5034705;28;20186;-68
2021/09/19 03:49:25;;;;;;;3.58;2.92;;;12.00;99.90;;;;;;5025608;28;20693;-67
2021/09/19 03:51:51;;;;;;;4.05;2.97;;;12.00;99.90;;;;;;5032873;28;20366;-66
2021/09/19 03:54:17;;;;;;;4.18;2.92;;;11.90;99.90;;;;;;5035371;28;20253;-67
2021/09/19 03:56:43;;;;;;;5.10;3.03;;;11.90;99.90;;;;;;5035948;28;20179;-66
2021/09/19 03:59:08;;;;;;;3.50;2.72;;;11.90;99.90;;;;;;5035446;28;20532;-65
2021/09/19 04:01:34;;;;;;;6.25;2.80;;;11.90;99.90;;;;;;5036636;28;20264;-67
2021/09/19 04:03:59;;;;;;;5.03;2.80;;;11.90;99.90;;;;;;5030441;28;20982;-66
2021/09/19 04:06:25;;;;;;;4.15;3.20;;;11.90;99.90;;;;;;5032103;28;20249;-70
2021/09/19 04:08:51;;;;;;;5.35;3.20;;;11.90;99.90;;;;;;5034183;28;20269;-69
2021/09/19 04:11:16;;;;;;;5.03;3.28;;;11.80;99.90;;;;;;5034099;28;20207;-65
2021/09/19 04:13:42;;;;;;;4.55;2.75;;;11.80;99.90;;;;;;5021779;28;20182;-66
2021/09/19 04:16:08;;;;;;;3.70;2.85;;;11.80;99.90;;;;;;5030257;28;20240;-68
2021/09/19 04:18:33;;;;;;;6.22;3.30;;;11.80;99.90;;;;;;5035127;28;20248;-69
2021/09/19 04:20:59;;;;;;;3.55;3.08;;;11.80;99.90;;;;;;5030298;28;20253;-69
2021/09/19 04:23:25;;;;;;;3.42;2.70;;;11.80;99.90;;;;;;5031253;28;20189;-66
2021/09/19 04:25:51;;;;;;;5.28;2.97;;;11.80;99.90;;;;;;5031746;28;20545;-67
2021/09/19 04:28:17;;;;;;;5.68;2.83;;;11.90;99.90;;;;;;5033679;28;20576;-67
2021/09/19 04:30:42;;;;;;;4.80;3.05;;;11.80;99.90;;;;;;5035097;28;20198;-68
2021/09/19 04:33:08;;;;;;;3.20;2.75;;;11.80;99.90;;;;;;5032411;28;20181;-67
2021/09/19 04:35:34;;;;;;;3.47;2.72;;;11.80;99.90;;;;;;5032183;28;20183;-67
2021/09/19 04:37:59;;;;;;;3.45;2.55;;;11.90;99.90;;;;;;5034184;28;20187;-68
2021/09/19 04:40:25;;;;;;;6.30;3.40;;;11.90;99.90;;;;;;5028390;28;20212;-68
2021/09/19 04:42:51;;;;;;;4.65;2.70;;;11.80;99.90;;;;;;5025520;28;20237;-69
2021/09/19 04:45:16;;;;;;;3.45;2.55;;;11.90;99.90;;;;;;5032693;28;20541;-69
2021/09/19 04:47:42;;;;;;;3.03;2.72;;;11.90;99.90;;;;;;5035898;28;20296;-68
2021/09/19 04:50:08;;;;;;;3.92;2.47;;;11.90;99.90;;;;;;5031872;28;20178;-70
2021/09/19 04:52:34;;;;;;;3.88;2.70;;;11.90;99.90;;;;;;5029963;28;20183;-67
2021/09/19 04:54:59;;;;;;;4.90;2.70;;;11.90;99.90;;;;;;5021657;28;20705;-67
2021/09/19 04:57:25;;;;;;;3.13;2.70;;;11.90;99.90;;;;;;5031452;28;20186;-70
2021/09/19 04:59:51;;;;;;;3.88;2.70;;;11.90;99.90;;;;;;5030774;28;20178;-67
2021/09/19 05:02:16;;;;;;;4.60;3.05;;;11.90;99.90;;;;;;5036402;28;20202;-68
2021/09/19 05:04:42;;;;;;;4.65;3.20;;;12.00;99.90;;;;;;5026318;28;20182;-68
2021/09/19 05:07:07;;;;;;;3.55;2.75;;;12.00;99.90;;;;;;5034844;28;20183;-65
2021/09/19 05:09:33;;;;;;;5.45;3.13;;;12.00;99.90;;;;;;5038104;28;20236;-66
2021/09/19 05:11:59;;;;;;;6.05;3.10;;;11.90;99.90;;;;;;5037363;28;20838;-67
2021/09/19 05:14:24;;;;;;;3.83;2.95;;;12.00;99.90;;;;;;5031005;28;20214;-68
2021/09/19 05:16:50;;;;;;;5.05;3.20;;;11.90;99.90;;;;;;5031042;28;20198;-70
2021/09/19 05:19:16;;;;;;;4.18;3.00;;;11.90;99.90;;;;;;5032830;28;20198;-69
2021/09/19 05:21:41;;;;;;;5.78;3.88;;;12.00;99.90;;;;;;5035603;28;20521;-66
2021/09/19 05:24:07;;;;;;;5.03;3.15;;;12.00;99.90;;;;;;5031075;28;20186;-68
2021/09/19 05:26:33;;;;;;;3.95;3.25;;;11.90;99.90;;;;;;5029956;28;20626;-69
2021/09/19 05:28:58;;;;;;;3.55;2.97;;;11.90;99.90;;;;;;5031275;28;20170;-67
2021/09/19 05:31:24;;;;;;;4.20;3.55;;;12.00;99.90;;;;;;5030423;28;20217;-65
2021/09/19 05:33:50;;;;;;;3.90;3.30;;;12.00;99.90;;;;;;5031596;28;20178;-67
2021/09/19 05:36:16;;;;;;;4.25;3.10;;;12.00;99.90;;;;;;5024004;28;20178;-67
2021/09/19 05:38:42;;;;;;;5.18;3.60;;;12.00;99.90;;;;;;5034758;28;20182;-68
2021/09/19 05:41:07;;;;;;;4.43;3.33;;;12.00;99.90;;;;;;5021154;28;20293;-67
2021/09/19 05:43:33;;;;;;;5.85;3.60;;;12.00;99.90;;;;;;5036401;28;20203;-66
2021/09/19 05:45:59;;;;;;;5.05;3.67;;;12.00;99.90;;;;;;5030879;28;20214;-70
2021/09/19 05:48:24;;;;;;;7.32;3.70;;;12.00;99.90;;;;;;5033128;28;20501;-69
2021/09/19 05:50:50;;;;;;;4.38;3.65;;;12.00;99.90;;;;;;5031920;28;20194;-68
2021/09/19 05:53:16;;;;;;;4.78;4.25;;;12.00;99.90;;;;;;5021954;28;20274;-69
2021/09/19 05:55:41;;;;;;;5.85;4.07;;;12.00;99.90;;;;;;5030079;28;20183;-67
2021/09/19 05:58:07;;;;;;;4.47;4.03;;;12.00;99.90;;;;;;5037073;28;20185;-70
2021/09/19 06:00:33;;;;;;;6.05;4.43;;;12.10;99.90;;;;;;5027907;28;20198;-68
2021/09/19 06:02:58;;;;;;;4.63;3.60;;;12.10;99.90;;;;;;5036803;28;20182;-69
2021/09/19 06:05:24;;;;;;;4.35;3.80;;;12.10;99.90;;;;;;5028244;28;20313;-66
2021/09/19 06:07:50;;;;;;;5.55;3.63;;;12.20;99.90;;;;;;5034781;28;20179;-65
2021/09/19 06:10:15;;;;;;;5.90;4.07;;;12.20;99.90;;;;;;5032790;28;20194;-69
2021/09/19 06:12:41;;;;;;;4.97;4.32;;;12.20;99.90;;;;;;5036977;28;20599;-66
2021/09/19 06:15:08;;;;;;;4.47;3.72;;;12.20;99.90;;;;;;5036947;28;20191;-67
2021/09/19 06:17:34;;;;;;;4.30;3.50;;;12.20;99.90;;;;;;5032886;28;20590;-67
2021/09/19 06:20:00;;;;;;;4.95;3.53;;;12.30;99.90;;;;;;5037419;28;20438;-67
2021/09/19 06:22:26;;;;;;;4.53;3.40;;;12.30;99.90;;;;;;5034735;28;20183;-67
2021/09/19 06:24:52;;;;;;;7.53;3.90;;;12.30;99.90;;;;;;5037584;28;20198;-68
2021/09/19 06:27:18;;;;;;;3.60;3.28;;;12.30;99.90;;;;;;5035929;28;20553;-66
2021/09/19 06:29:43;;;;;;;5.43;3.80;;;12.40;99.90;;;;;;5037501;28;20205;-67
2021/09/19 06:32:10;;;;;;;4.47;3.55;;;12.40;99.90;;;;;;5035747;28;20210;-66
2021/09/19 06:34:37;;;;;;;5.00;3.80;;;12.40;99.90;;;;;;5033836;28;20523;-67
2021/09/19 06:37:04;;;;;;;8.45;3.83;;;12.40;99.90;;;;;;5039159;28;20622;-67
2021/09/19 06:39:30;;;;;;;3.90;3.15;;;12.50;99.90;;;;;;5033637;28;20183;-69
2021/09/19 06:41:55;;;;;;;3.55;3.22;;;12.40;99.90;;;;;;5033263;28;20257;-68
2021/09/19 06:44:21;;;;;;;3.50;3.20;;;12.50;99.90;;;;;;5036254;28;20281;-65
2021/09/19 06:46:47;;;;;;;4.53;3.53;;;12.50;99.90;;;;;;5027145;28;20217;-68
2021/09/19 06:49:12;;;;;;;5.47;3.72;;;12.50;99.90;;;;;;5024883;28;20384;-70
2021/09/19 06:51:38;;;;;;;4.88;3.75;;;12.50;99.90;;;;;;5033030;28;20448;-65
2021/09/19 06:54:04;;;;;;;5.38;3.60;;;12.50;99.90;;;;;;5033353;28;20716;-70
2021/09/19 06:56:29;;;;;;;4.28;3.58;;;12.60;99.90;;;;;;5036355;28;20174;-68
2021/09/19 06:58:56;;;;;;;5.93;3.83;;;12.60;99.90;;;;;;5036662;28;20177;-65
2021/09/19 07:01:22;;;;;;;5.32;4.15;;;12.60;99.90;;;;;;5024302;28;20732;-67
2021/09/19 07:03:49;;;;;;;4.13;3.60;;;12.60;99.90;;;;;;5036020;28;20190;-67
2021/09/19 07:06:16;;;;;;;5.60;3.65;;;12.60;99.90;;;;;;5033613;28;20228;-65
2021/09/19 07:08:42;;;;;;;3.22;2.92;;;12.70;99.90;;;;;;5029781;28;20178;-67
2021/09/19 07:11:07;;;;;;;6.45;3.50;;;12.70;99.90;;;;;;5037897;28;20258;-68
2021/09/19 07:13:33;;;;;;;4.05;3.28;;;12.70;99.90;;;;;;5029923;28;20186;-68
2021/09/19 07:15:59;;;;;;;3.67;2.78;;;12.80;99.90;;;;;;5036651;28;20225;-69
2021/09/19 07:18:24;;;;;;;4.53;3.50;;;12.90;99.90;;;;;;5026288;28;20174;-70
2021/09/19 07:20:53;;;;;;;4.40;3.05;;;12.90;99.90;;;;;;5036667;28;20206;-66
2021/09/19 07:23:19;;;;;;;3.47;3.00;;;12.80;99.90;;;;;;5033593;28;20423;-67
2021/09/19 07:25:45;;;;;;;4.55;3.10;;;12.90;99.90;;;;;;5035149;28;20646;-66
2021/09/19 07:28:11;;;;;;;3.08;2.40;;;13.00;99.90;;;;;;5034659;28;20198;-68
2021/09/19 07:30:37;;;;;;;3.40;2.50;;;13.10;99.90;;;;;;5034710;28;20218;-66
2021/09/19 07:33:03;;;;;;;2.63;2.40;;;13.20;99.90;;;;;;5033931;28;20175;-70
2021/09/19 07:35:28;;;;;;;4.88;2.80;;;13.20;99.90;;;;;;5035380;28;20525;-69
2021/09/19 07:37:54;;;;;;;3.22;2.58;;;13.20;99.90;;;;;;5029232;28;20193;-69
2021/09/19 07:40:21;;;;;;;5.20;2.97;;;13.20;99.90;;;;;;5034455;28;20217;-64
2021/09/19 07:42:46;;;;;;;3.67;2.47;;;13.20;99.90;;;;;;5032880;28;20208;-68
2021/09/19 07:45:13;;;;;;;3.33;2.90;;;13.30;99.90;;;;;;5034769;28;20203;-67
2021/09/19 07:47:39;;;;;;;3.35;2.72;;;13.30;99.90;;;;;;5033192;28;20572;-66
2021/09/19 07:50:06;;;;;;;3.30;2.53;;;13.30;99.90;;;;;;5033821;28;20232;-65
2021/09/19 07:52:32;;;;;;;5.50;2.83;;;13.40;99.90;;;;;;5029645;28;20214;-67
2021/09/19 07:54:58;;;;;;;3.50;2.60;;;13.40;99.90;;;;;;5033471;28;20206;-66
2021/09/19 07:57:24;;;;;;;3.45;2.60;;;13.50;99.90;;;;;;5036028;28;20216;-67
2021/09/19 07:59:51;;;;;;;4.57;2.60;;;13.50;99.90;;;;;;5036784;28;20252;-68
2021/09/19 08:02:17;;;;;;;2.78;2.33;;;13.50;99.90;;;;;;5033014;28;20739;-66
2021/09/19 08:04:43;;;;;;;4.82;2.95;;;13.60;99.90;;;;;;5032481;28;20186;-67
2021/09/19 08:07:09;;;;;;;3.08;2.65;;;13.60;99.90;;;;;;5039484;28;20193;-66
2021/09/19 08:09:35;;;;;;;2.90;2.38;;;13.80;99.90;;;;;;5037909;28;20182;-69
2021/09/19 08:12:01;;;;;;;4.00;2.70;;;13.80;99.90;;;;;;5022007;28;20641;-68
2021/09/19 08:14:26;;;;;;;3.60;2.83;;;13.80;99.90;;;;;;5034382;28;20194;-68
2021/09/19 08:16:52;;;;;;;3.40;2.60;;;13.90;99.90;;;;;;5032482;28;20175;-68
2021/09/19 08:19:18;;;;;;;4.25;2.78;;;13.80;99.90;;;;;;5037828;28;20178;-68
2021/09/19 08:21:44;;;;;;;4.45;2.58;;;13.80;99.90;;;;;;5031124;28;20194;-67
2021/09/19 08:24:11;;;;;;;3.15;2.30;;;13.70;99.90;;;;;;5033543;28;20517;-68
2021/09/19 08:26:38;;;;;;;4.40;2.90;;;13.60;99.90;;;;;;5035695;28;20198;-66
2021/09/19 08:29:05;;;;;;;4.93;2.53;;;13.70;99.90;;;;;;5034796;28;20175;-69
2021/09/19 08:31:31;;;;;;;3.92;2.40;;;13.80;99.90;;;;;;5033467;28;20213;-69
2021/09/19 08:33:57;;;;;;;3.20;2.50;;;13.70;99.90;;;;;;5035388;28;20174;-66
2021/09/19 08:36:24;;;;;;;4.35;2.13;;;13.70;99.90;;;;;;5032349;28;20241;-70
2021/09/19 08:38:50;;;;;;;3.20;2.60;;;13.80;99.90;;;;;;5030140;28;20171;-66
2021/09/19 08:41:18;;;;;;;2.88;2.15;;;14.00;99.90;;;;;;5033824;28;20282;-70
2021/09/19 08:43:47;;;;;;;2.25;1.92;;;14.10;99.90;;;;;;5034404;28;20206;-69
2021/09/19 08:46:15;;;;;;;2.58;2.17;;;14.10;99.90;;;;;;5034234;28;20214;-68
2021/09/19 08:48:41;;;;;;;3.13;2.38;;;14.20;99.90;;;;;;5032010;28;20202;-66
2021/09/19 08:51:06;;;;;;;3.28;2.30;;;14.20;99.90;;;;;;5032500;28;20674;-68
2021/09/19 08:53:32;;;;;;;2.35;2.15;;;14.20;99.90;;;;;;5032043;28;20629;-67
2021/09/19 08:55:59;;;;;;;2.30;2.05;;;14.20;99.90;;;;;;5032448;28;20232;-70
2021/09/19 08:58:25;;;;;;;3.63;2.30;;;14.20;99.90;;;;;;5035346;28;20916;-68
2021/09/19 09:00:51;;;;;;;2.88;1.90;;;14.10;99.90;;;;;;5022279;28;20218;-69
2021/09/19 09:03:20;;;;;;;2.38;2.17;;;14.10;99.90;;;;;;5033173;28;20194;-66
2021/09/19 09:05:59;;;;;;;3.38;2.28;;;14.10;99.90;;;;;;5031688;28;20218;-69
2021/09/19 09:08:26;;;;;;;3.15;2.30;;;14.00;99.90;;;;;;5036636;28;20177;-69
2021/09/19 09:10:54;;;;;;;3.22;2.25;;;14.10;99.90;;;;;;5025393;28;20195;-74
2021/09/19 09:13:26;;;;;;;4.22;2.20;;;14.10;99.90;;;;;;5021843;28;20316;-66
2021/09/19 09:16:16;;;;;;;3.13;2.00;;;14.00;99.90;;;;;;5037189;28;20265;-69
2021/09/19 09:18:45;;;;;;;4.95;2.70;;;14.00;99.90;;;;;;5031914;28;20260;-70
2021/09/19 09:21:24;;;;;;;3.17;2.50;;;14.10;99.90;;;;;;5034354;28;20226;-68
2021/09/19 09:23:52;;;;;;;4.13;2.53;;;14.00;99.90;;;;;;5034626;28;20441;-68
2021/09/19 09:26:23;;;;;;;4.53;2.80;;;14.00;99.90;;;;;;5032658;28;20210;-69
2021/09/19 09:29:09;;;;;;;2.50;2.30;;;14.10;99.90;;;;;;5034775;28;20178;-70
2021/09/19 09:31:41;;;;;;;3.20;2.50;;;14.20;99.90;;;;;;5030964;28;20194;-69
2021/09/19 09:34:12;;;;;;;4.57;2.17;;;14.20;99.90;;;;;;5036364;28;20239;-66
2021/09/19 09:36:54;;;;;;;4.55;2.20;;;14.20;99.90;;;;;;5038819;28;20183;-68
2021/09/19 09:39:37;;;;;;;4.05;2.60;;;14.30;99.90;;;;;;5042372;28;20278;-69
2021/09/19 09:42:04;;;;;;;4.65;2.80;;;14.20;99.90;;;;;;5034695;28;20688;-68
2021/09/19 09:44:36;;;;;;;4.15;2.40;;;14.20;99.90;;;;;;5038641;28;20205;-68
2021/09/19 09:47:06;;;;;;;5.03;3.00;;;14.10;99.90;;;;;;5029122;28;20974;-68
2021/09/19 09:49:40;;;;;;;2.60;2.35;;;14.10;99.90;;;;;;5032571;28;20224;-67
2021/09/19 09:52:12;;;;;;;3.75;2.38;;;14.20;99.90;;;;;;5031204;28;20248;-69
2021/09/19 09:54:44;;;;;;;4.60;2.40;;;14.30;99.90;;;;;;5038592;28;20189;-68
2021/09/19 09:57:10;;;;;;;3.97;2.40;;;14.30;99.90;;;;;;5037040;28;20182;-68
2021/09/19 09:59:36;;;;;;;2.40;2.20;;;14.40;99.90;;;;;;5034494;28;20653;-69
2021/09/19 10:02:03;;;;;;;3.42;2.38;;;14.40;99.90;;;;;;5033919;28;20202;-69
2021/09/19 10:04:34;;;;;;;3.55;2.10;;;14.60;99.90;;;;;;5034871;28;20175;-67
2021/09/19 10:07:09;;;;;;;2.90;2.00;;;14.60;99.90;;;;;;5032226;28;20203;-67
2021/09/19 10:09:36;;;;;;;2.95;2.28;;;14.70;99.90;;;;;;5035251;28;20170;-67
2021/09/19 10:12:26;;;;;;;3.13;1.90;;;14.70;99.90;;;;;;5025896;28;20249;-69
2021/09/19 10:14:52;;;;;;;3.00;1.80;;;14.60;99.90;;;;;;5030784;28;20183;-67
2021/09/19 10:17:19;;;;;;;3.40;2.28;;;14.60;99.90;;;;;;5035199;28;20240;-69
2021/09/19 10:19:46;;;;;;;4.43;2.33;;;14.60;99.90;;;;;;5024707;28;20265;-67
2021/09/19 10:22:20;;;;;;;5.00;2.05;;;14.70;99.90;;;;;;5041250;28;20202;-70
2021/09/19 10:24:53;;;;;;;3.75;2.00;;;14.80;99.90;;;;;;5035486;28;20226;-67
2021/09/19 10:27:23;;;;;;;3.40;2.33;;;15.00;99.90;;;;;;5042599;28;20194;-69
2021/09/19 10:30:07;;;;;;;3.83;2.45;;;15.00;99.90;;;;;;5032899;28;20183;-67
2021/09/19 10:32:39;;;;;;;2.60;1.92;;;15.10;99.90;;;;;;5030539;28;20178;-67
2021/09/19 10:35:18;;;;;;;3.83;1.90;;;15.30;99.90;;;;;;5036641;28;20167;-68
2021/09/19 10:38:07;;;;;;;1.95;1.70;;;15.50;99.90;;;;;;5040011;28;20183;-68
2021/09/19 10:40:36;;;;;;;3.83;2.10;;;15.40;99.90;;;;;;5027661;28;20206;-69
2021/09/19 10:43:05;;;;;;;2.58;1.80;;;15.40;99.90;;;;;;5035283;28;20276;-69
2021/09/19 10:45:41;;;;;;;1.95;1.50;;;15.60;99.90;;;;;;5036470;28;20317;-69
2021/09/19 10:48:25;;;;;;;1.92;1.60;;;15.90;99.90;;;;;;5039461;28;20642;-70
2021/09/19 10:51:02;;;;;;;2.15;1.75;;;16.00;99.90;;;;;;5024484;28;20247;-68
2021/09/19 10:53:27;;;;;;;2.58;1.45;;;16.00;99.90;;;;;;5030543;28;20190;-67
2021/09/19 10:56:03;;;;;;;2.85;1.88;;;15.90;99.90;;;;;;5039811;28;20174;-66
2021/09/19 10:58:46;;;;;;;4.45;1.73;;;15.60;99.90;;;;;;5029911;28;20193;-67
2021/09/19 11:01:26;;;;;;;2.67;1.85;;;15.70;99.90;;;;;;5026298;28;20607;-67
2021/09/19 11:04:00;;;;;;;1.70;1.60;;;15.50;99.90;;;;;;5037971;28;20578;-69
2021/09/19 11:06:31;;;;;;;2.22;1.65;;;15.30;99.90;;;;;;5034954;28;20475;-67
2021/09/19 11:08:59;;;;;;;1.67;1.58;;;15.30;99.90;;;;;;5041335;28;20193;-69
2021/09/19 11:11:27;;;;;;;2.63;1.90;;;15.30;99.90;;;;;;5033005;28;20201;-67
2021/09/19 11:14:00;;;;;;;2.25;1.70;;;15.40;99.90;;;;;;5033429;28;20233;-68
2021/09/19 11:16:30;;;;;;;2.95;1.50;;;15.30;99.90;;;;;;5033512;28;20205;-69
2021/09/19 11:19:02;;;;;;;2.10;1.80;;;15.40;99.90;;;;;;5023982;28;20186;-70
2021/09/19 11:21:29;;;;;;;1.88;1.65;;;15.50;99.90;;;;;;5031670;28;20208;-68
2021/09/19 11:24:02;;;;;;;2.58;1.55;;;15.50;99.90;;;;;;5039193;28;20178;-68
2021/09/19 11:26:34;;;;;;;1.75;1.63;;;15.50;99.90;;;;;;5027390;28;20309;-68
2021/09/19 11:29:04;;;;;;;1.80;1.50;;;15.50;99.90;;;;;;5026662;28;20577;-68
2021/09/19 11:31:30;;;;;;;1.83;1.52;;;15.40;99.90;;;;;;5032944;28;20213;-69
2021/09/19 11:34:04;;;;;;;1.75;1.63;;;15.30;99.90;;;;;;5026544;28;20539;-67
2021/09/19 11:36:31;;;;;;;2.15;1.77;;;15.30;99.90;;;;;;5029847;28;20196;-68
2021/09/19 11:38:57;;;;;;;2.10;1.60;;;15.40;99.90;;;;;;5034793;28;20179;-69
2021/09/19 11:41:24;;;;;;;4.55;1.92;;;15.20;99.90;;;;;;5033169;28;20209;-69
2021/09/19 11:43:52;;;;;;;3.10;1.73;;;15.20;99.90;;;;;;5036268;28;20244;-69
2021/09/19 11:46:21;;;;;;;2.35;1.65;;;15.20;99.90;;;;;;5036763;28;20211;-70
2021/09/19 11:48:48;;;;;;;2.05;1.60;;;15.20;99.90;;;;;;5037694;28;20214;-69
2021/09/19 11:51:16;;;;;;;1.98;1.35;;;15.20;99.90;;;;;;5034526;28;20241;-66
2021/09/19 11:53:47;;;;;;;3.20;2.10;;;15.10;99.90;;;;;;5038108;28;20537;-68
2021/09/19 11:56:16;;;;;;;3.03;1.83;;;15.20;99.90;;;;;;5034543;28;20187;-67
2021/09/19 11:58:43;;;;;;;2.92;1.70;;;15.30;99.90;;;;;;5033295;28;20197;-68
2021/09/19 12:01:08;;;;;;;3.55;2.20;;;15.60;99.90;;;;;;5029279;28;20302;-70
2021/09/19 12:03:35;;;;;;;2.78;2.05;;;15.70;99.90;;;;;;5031918;28;20265;-67
2021/09/19 12:06:01;;;;;;;3.95;1.52;;;15.90;99.90;;;;;;5032834;28;20245;-69
2021/09/19 12:08:29;;;;;;;3.28;1.88;;;16.00;99.90;;;;;;5036284;28;20171;-68
2021/09/19 12:10:56;;;;;;;3.50;1.70;;;16.00;99.90;;;;;;5029236;28;20214;-69
2021/09/19 12:13:30;;;;;;;2.38;1.77;;;16.10;99.90;;;;;;5034879;28;20650;-65
2021/09/19 12:16:06;;;;;;;1.58;1.48;;;16.10;99.90;;;;;;5036391;28;20504;-66
2021/09/19 12:18:38;;;;;;;2.10;1.58;;;16.10;99.90;;;;;;5032445;28;20187;-67
2021/09/19 12:21:12;;;;;;;3.35;1.75;;;15.80;99.90;;;;;;5033433;28;20203;-69
2021/09/19 12:23:58;;;;;;;2.63;1.98;;;15.60;99.90;;;;;;5038347;28;20186;-67
2021/09/19 12:26:31;;;;;;;2.15;1.70;;;15.50;99.90;;;;;;5033129;28;20461;-66
2021/09/19 12:29:00;;;;;;;2.92;2.10;;;15.30;99.90;;;;;;5029106;28;20240;-69
2021/09/19 12:31:43;;;;;;;2.35;2.08;;;15.20;99.90;;;;;;5030002;28;20194;-69
2021/09/19 12:34:14;;;;;;;2.60;1.50;;;15.20;99.90;;;;;;5031593;28;20920;-68
2021/09/19 12:36:42;;;;;;;3.33;1.98;;;15.10;99.90;;;;;;5030926;28;20179;-69
2021/09/19 12:39:16;;;;;;;2.45;1.70;;;15.00;99.90;;;;;;5032268;28;20266;-68
2021/09/19 12:41:44;;;;;;;2.08;1.67;;;14.90;99.90;;;;;;5031563;28;20264;-69
2021/09/19 12:44:18;;;;;;;3.50;1.90;;;15.00;99.90;;;;;;5033233;28;20206;-67
2021/09/19 12:46:46;;;;;;;2.47;1.73;;;15.10;99.90;;;;;;5035429;28;20615;-69
2021/09/19 12:49:23;;;;;;;1.98;1.50;;;15.10;99.90;;;;;;5033250;28;20422;-70